Time;durP1;ratioP1;P1;durP2;ratioP2;P2;SDS_P1;SDS_P2;PMS_P1;PMS_P2;Temp;Humidity;BMP_temperature;BMP_pressure;BME280_temperature;BME280_humidity;BME280_pressure;Samples;Min_cycle;Max_cycle;Signal;HPM_P1;HPM_P2
2023/02/08 00:01:22;;;;;;;31.42;17.98;;;-6.00;98.00;;;;;;5053675;28;20291;-64
2023/02/08 00:03:47;;;;;;;32.50;16.30;;;-6.10;98.00;;;;;;5039169;28;20029;-64
2023/02/08 00:06:16;;;;;;;33.75;16.65;;;-6.10;98.00;;;;;;5035910;28;20044;-65
2023/02/08 00:08:43;;;;;;;30.83;15.40;;;-6.20;98.00;;;;;;5034179;28;20235;-64
2023/02/08 00:11:09;;;;;;;33.05;17.77;;;-6.20;98.00;;;;;;5042914;28;20029;-63
2023/02/08 00:13:35;;;;;;;31.52;18.50;;;-6.10;98.00;;;;;;5046089;28;20049;-63
2023/02/08 00:16:01;;;;;;;24.95;13.32;;;-6.20;98.00;;;;;;5036977;28;20047;-64
2023/02/08 00:18:27;;;;;;;24.38;12.57;;;-6.20;98.00;;;;;;5050064;28;20020;-64
2023/02/08 00:20:54;;;;;;;24.23;12.77;;;-6.20;98.00;;;;;;5042980;28;20445;-64
2023/02/08 00:23:20;;;;;;;23.33;13.10;;;-6.20;98.00;;;;;;5045602;28;20100;-63
2023/02/08 00:25:45;;;;;;;24.60;12.90;;;-6.20;98.00;;;;;;5044938;28;20128;-64
2023/02/08 00:28:13;;;;;;;22.52;12.85;;;-6.10;98.00;;;;;;5040104;28;20330;-64
2023/02/08 00:30:40;;;;;;;22.52;12.57;;;-6.10;98.00;;;;;;5035206;28;20426;-64
2023/02/08 00:33:05;;;;;;;22.70;12.90;;;-6.10;98.00;;;;;;5037563;28;20021;-64
2023/02/08 00:35:31;;;;;;;24.30;13.13;;;-6.00;97.90;;;;;;5047389;28;20021;-64
2023/02/08 00:37:56;;;;;;;24.25;13.63;;;-6.00;97.80;;;;;;5035635;28;20411;-64
2023/02/08 00:40:23;;;;;;;24.00;13.60;;;-6.00;97.70;;;;;;5044939;28;20434;-64
2023/02/08 00:42:48;;;;;;;23.48;13.45;;;-6.10;97.60;;;;;;5035363;28;20021;-64
2023/02/08 00:45:14;;;;;;;22.90;12.25;;;-6.10;98.00;;;;;;5040347;28;20029;-64
2023/02/08 00:47:39;;;;;;;20.52;11.07;;;-6.10;97.60;;;;;;5038955;28;20036;-64
2023/02/08 00:50:05;;;;;;;19.35;10.55;;;-6.00;96.50;;;;;;5051077;28;20032;-64
2023/02/08 00:52:31;;;;;;;21.08;10.57;;;-5.90;96.10;;;;;;5042531;28;20036;-63
2023/02/08 00:54:57;;;;;;;17.70;9.65;;;-5.90;95.20;;;;;;5046211;28;20025;-64
2023/02/08 00:57:22;;;;;;;18.50;9.55;;;-5.70;94.00;;;;;;5051327;28;20342;-64
2023/02/08 00:59:48;;;;;;;16.85;9.18;;;-5.30;91.20;;;;;;5046178;28;20026;-64
2023/02/08 01:02:13;;;;;;;23.08;12.55;;;-5.00;89.30;;;;;;5038942;28;20084;-64
2023/02/08 01:04:39;;;;;;;15.80;9.77;;;-4.90;88.80;;;;;;5038734;28;20414;-64
2023/02/08 01:07:05;;;;;;;17.80;10.38;;;-4.70;87.30;;;;;;5039580;28;20030;-63
2023/02/08 01:09:32;;;;;;;15.88;8.35;;;-4.60;86.70;;;;;;5041734;28;20057;-63
2023/02/08 01:11:57;;;;;;;17.00;8.48;;;-4.60;85.90;;;;;;5048678;28;20441;-64
2023/02/08 01:14:23;;;;;;;15.00;7.78;;;-4.50;85.90;;;;;;5043604;28;20087;-63
2023/02/08 01:16:48;;;;;;;20.02;9.07;;;-4.60;85.60;;;;;;5042122;28;20026;-63
2023/02/08 01:19:14;;;;;;;15.27;8.40;;;-4.60;85.00;;;;;;5053735;28;20018;-63
2023/02/08 01:21:41;;;;;;;15.10;8.40;;;-4.70;85.30;;;;;;5041745;28;20025;-63
2023/02/08 01:24:07;;;;;;;16.42;8.80;;;-4.80;85.40;;;;;;5042849;28;20030;-63
2023/02/08 01:26:33;;;;;;;17.33;8.70;;;-4.70;85.20;;;;;;5040881;28;20032;-64
2023/02/08 01:28:59;;;;;;;15.40;7.93;;;-4.60;85.00;;;;;;5051740;28;20426;-64
2023/02/08 01:31:28;;;;;;;15.63;8.73;;;-4.60;84.00;;;;;;5049378;28;20088;-62
2023/02/08 01:33:54;;;;;;;14.68;7.85;;;-4.60;83.80;;;;;;5044676;28;20036;-64
2023/02/08 01:36:21;;;;;;;14.80;8.15;;;-4.50;83.50;;;;;;5038690;28;20067;-63
2023/02/08 01:38:47;;;;;;;16.85;8.32;;;-4.50;82.90;;;;;;5047102;28;20142;-65
2023/02/08 01:41:21;;;;;;;18.17;9.32;;;-4.60;83.00;;;;;;5041522;28;20033;-64
2023/02/08 01:44:08;;;;;;;17.38;8.50;;;-4.70;83.30;;;;;;5042722;28;20026;-64
2023/02/08 01:46:36;;;;;;;12.70;6.93;;;-4.80;83.30;;;;;;5044103;28;20044;-64
2023/02/08 01:49:07;;;;;;;15.73;7.30;;;-4.90;82.90;;;;;;5048614;28;20033;-64
2023/02/08 01:51:38;;;;;;;12.95;7.63;;;-4.90;82.90;;;;;;5039808;28;20079;-63
2023/02/08 01:54:05;;;;;;;12.80;7.63;;;-5.00;83.20;;;;;;5042543;28;20065;-63
2023/02/08 01:56:34;;;;;;;16.30;7.70;;;-5.10;83.00;;;;;;5046380;28;20028;-63
2023/02/08 01:59:05;;;;;;;16.40;9.02;;;-5.20;85.30;;;;;;5038469;28;20029;-63
2023/02/08 02:01:31;;;;;;;17.25;9.40;;;-5.50;87.80;;;;;;5039939;28;20190;-64
2023/02/08 02:04:04;;;;;;;19.92;10.95;;;-5.80;90.50;;;;;;5052395;28;20457;-64
2023/02/08 02:06:39;;;;;;;22.73;11.23;;;-6.10;91.90;;;;;;5045089;28;20032;-63
2023/02/08 02:09:15;;;;;;;21.08;10.48;;;-6.30;93.10;;;;;;5041821;28;20033;-64
2023/02/08 02:11:42;;;;;;;20.92;10.05;;;-6.50;94.20;;;;;;5062212;28;20028;-64
2023/02/08 02:14:11;;;;;;;21.23;10.68;;;-6.80;95.20;;;;;;5056304;28;20110;-64
2023/02/08 02:16:36;;;;;;;17.70;9.75;;;-7.00;96.10;;;;;;5048819;28;20021;-63
2023/02/08 02:19:06;;;;;;;16.67;8.88;;;-7.10;97.10;;;;;;5043212;28;20032;-64
2023/02/08 02:21:48;;;;;;;16.10;8.48;;;-7.10;97.10;;;;;;5049297;28;20112;-63
2023/02/08 02:24:13;;;;;;;14.07;7.50;;;-7.20;97.20;;;;;;5045842;28;20063;-62
2023/02/08 02:27:08;;;;;;;16.50;8.85;;;-7.20;97.40;;;;;;5041392;28;20025;-63
2023/02/08 02:30:19;;;;;;;17.63;8.93;;;-7.10;97.80;;;;;;5038358;28;20053;-62
2023/02/08 02:32:45;;;;;;;19.55;9.05;;;-7.20;97.90;;;;;;5040508;28;20075;-63
2023/02/08 02:35:35;;;;;;;18.92;9.05;;;-7.20;98.00;;;;;;5044052;28;20037;-65
2023/02/08 02:38:18;;;;;;;16.98;8.43;;;-7.20;98.00;;;;;;5037168;28;20025;-63
2023/02/08 02:40:57;;;;;;;17.27;9.70;;;-7.30;98.00;;;;;;5042390;28;20029;-64
2023/02/08 02:43:40;;;;;;;18.63;10.18;;;-7.30;98.00;;;;;;5040050;28;20338;-63
2023/02/08 02:46:26;;;;;;;17.80;9.73;;;-7.40;98.00;;;;;;5039589;28;20744;-64
2023/02/08 02:49:00;;;;;;;16.55;9.43;;;-7.50;98.00;;;;;;5044277;28;20049;-63
2023/02/08 02:51:35;;;;;;;19.65;10.25;;;-7.60;98.00;;;;;;5048354;28;20306;-64
2023/02/08 02:54:19;;;;;;;20.40;10.68;;;-7.70;98.00;;;;;;5050885;28;20033;-63
2023/02/08 02:56:47;;;;;;;19.55;10.88;;;-7.90;98.00;;;;;;5043291;28;20025;-63
2023/02/08 02:59:15;;;;;;;20.25;9.82;;;-8.10;98.00;;;;;;5051839;28;20112;-63
2023/02/08 03:01:43;;;;;;;18.80;9.77;;;-8.20;98.00;;;;;;5046079;28;20385;-63
2023/02/08 03:04:13;;;;;;;18.40;9.50;;;-8.20;98.00;;;;;;5041369;28;20113;-63
2023/02/08 03:07:03;;;;;;;20.88;10.82;;;-8.30;98.00;;;;;;5048180;28;20026;-63
2023/02/08 03:09:46;;;;;;;18.75;9.45;;;-8.10;98.00;;;;;;5045684;28;20041;-63
2023/02/08 03:12:39;;;;;;;15.52;8.32;;;-7.90;98.00;;;;;;5041289;28;20449;-63
2023/02/08 03:15:14;;;;;;;17.13;9.45;;;-7.70;98.00;;;;;;5035258;28;20322;-63
2023/02/08 03:17:55;;;;;;;18.38;9.40;;;-7.90;98.00;;;;;;5037104;28;20113;-63
2023/02/08 03:20:29;;;;;;;21.80;11.38;;;-7.90;98.00;;;;;;5035974;28;20025;-63
2023/02/08 03:23:09;;;;;;;18.15;10.15;;;-7.70;98.00;;;;;;5038078;28;20040;-63
2023/02/08 03:25:52;;;;;;;17.85;8.45;;;-7.60;98.00;;;;;;5036683;28;20099;-64
2023/02/08 03:28:46;;;;;;;20.92;10.77;;;-7.60;98.00;;;;;;5047191;28;20025;-64
2023/02/08 03:31:11;;;;;;;;;;;-7.50;98.00;;;;;;5043444;28;20040;-63
2023/02/08 03:33:47;;;;;;;20.15;10.00;;;-7.30;98.00;;;;;;5048564;28;19912;-64
2023/02/08 03:36:22;;;;;;;21.10;10.13;;;-7.20;97.00;;;;;;5038655;28;20329;-63
2023/02/08 03:38:49;;;;;;;19.90;9.98;;;-7.20;96.80;;;;;;5046075;28;20078;-64
2023/02/08 03:41:23;;;;;;;19.23;9.50;;;-7.20;97.10;;;;;;5036928;28;20021;-64
2023/02/08 03:44:08;;;;;;;19.33;10.50;;;-7.30;97.80;;;;;;5041357;28;20076;-63
2023/02/08 03:46:38;;;;;;;19.88;10.13;;;-7.40;98.00;;;;;;5044653;28;20036;-63
2023/02/08 03:49:13;;;;;;;17.95;9.68;;;-7.40;98.00;;;;;;5048834;28;20030;-63
2023/02/08 03:51:42;;;;;;;17.80;9.95;;;-7.40;98.00;;;;;;5051279;28;20029;-63
2023/02/08 03:54:14;;;;;;;20.70;9.93;;;-7.40;98.00;;;;;;5035791;28;20037;-64
2023/02/08 03:57:09;;;;;;;20.67;10.30;;;-7.40;98.00;;;;;;5043148;28;20318;-63
2023/02/08 03:59:42;;;;;;;21.60;10.55;;;-7.50;98.00;;;;;;5041266;28;20326;-63
2023/02/08 04:02:12;;;;;;;19.15;9.45;;;-7.50;98.00;;;;;;5039741;28;20457;-63
2023/02/08 04:04:43;;;;;;;19.92;10.25;;;-7.60;98.00;;;;;;5047516;28;20017;-63
2023/02/08 04:07:09;;;;;;;19.63;10.00;;;-7.60;98.00;;;;;;5050492;28;20392;-63
2023/02/08 04:09:35;;;;;;;20.73;10.13;;;-7.60;98.00;;;;;;5042340;28;20029;-64
2023/02/08 04:12:00;;;;;;;20.10;10.05;;;-7.70;98.00;;;;;;5043239;28;20032;-64
2023/02/08 04:14:26;;;;;;;20.15;10.52;;;-7.70;98.00;;;;;;5043301;28;20031;-63
2023/02/08 04:16:51;;;;;;;21.23;10.93;;;-7.70;98.00;;;;;;5046476;28;20053;-64
2023/02/08 04:19:17;;;;;;;18.48;10.52;;;-7.70;98.00;;;;;;5051603;28;20108;-64
2023/02/08 04:21:42;;;;;;;19.73;10.35;;;-7.80;98.00;;;;;;5046137;28;20025;-64
2023/02/08 04:24:08;;;;;;;17.98;10.38;;;-7.80;98.00;;;;;;5050700;28;20037;-63
2023/02/08 04:26:34;;;;;;;22.33;10.05;;;-7.90;98.00;;;;;;5039446;28;20056;-63
2023/02/08 04:29:01;;;;;;;23.02;10.75;;;-7.80;98.00;;;;;;5045379;28;20102;-63
2023/02/08 04:31:27;;;;;;;20.27;10.15;;;-7.80;98.00;;;;;;5048343;28;20530;-64
2023/02/08 04:33:53;;;;;;;17.33;10.60;;;-7.80;98.00;;;;;;5051884;28;20120;-62
2023/02/08 04:36:18;;;;;;;20.45;10.48;;;-7.80;98.00;;;;;;5049406;28;20021;-62
2023/02/08 04:38:45;;;;;;;21.20;10.60;;;-7.80;98.00;;;;;;5036428;28;20049;-62
2023/02/08 04:41:12;;;;;;;18.20;9.82;;;-7.90;98.00;;;;;;5035045;28;20147;-62
2023/02/08 04:43:37;;;;;;;18.95;10.05;;;-8.00;98.00;;;;;;5046995;28;20021;-63
2023/02/08 04:46:03;;;;;;;21.08;10.57;;;-7.90;98.00;;;;;;5044446;28;20035;-62
2023/02/08 04:48:29;;;;;;;18.90;10.25;;;-7.90;98.00;;;;;;5042675;28;20033;-64
2023/02/08 04:50:56;;;;;;;19.40;10.85;;;-7.90;98.00;;;;;;5036114;28;20097;-64
2023/02/08 04:53:23;;;;;;;19.35;10.13;;;-7.90;98.00;;;;;;5034318;28;20038;-63
2023/02/08 04:55:48;;;;;;;21.30;10.88;;;-7.90;98.00;;;;;;5035721;28;20037;-63
2023/02/08 04:58:14;;;;;;;20.17;11.52;;;-7.80;98.00;;;;;;5045826;28;20148;-63
2023/02/08 05:00:39;;;;;;;19.90;10.63;;;-7.90;98.00;;;;;;5040740;28;20096;-62
2023/02/08 05:03:05;;;;;;;22.08;10.85;;;-7.90;98.00;;;;;;5047071;28;20033;-63
2023/02/08 05:05:31;;;;;;;18.52;10.98;;;-7.90;98.00;;;;;;5040945;28;20049;-62
2023/02/08 05:07:57;;;;;;;18.35;10.50;;;-7.80;98.00;;;;;;5041793;28;20339;-63
2023/02/08 05:10:23;;;;;;;20.73;10.27;;;-7.80;98.00;;;;;;5040435;28;20036;-63
2023/02/08 05:12:48;;;;;;;19.27;10.13;;;-7.70;98.00;;;;;;5047438;28;20029;-63
2023/02/08 05:15:14;;;;;;;23.48;12.13;;;-7.80;98.00;;;;;;5035999;28;20056;-62
2023/02/08 05:17:42;;;;;;;22.20;11.80;;;-7.80;98.00;;;;;;5040643;28;20029;-62
2023/02/08 05:20:08;;;;;;;18.92;10.00;;;-7.90;98.00;;;;;;5036421;28;20060;-62
2023/02/08 05:22:34;;;;;;;23.15;10.85;;;-7.90;98.00;;;;;;5042815;28;20096;-64
2023/02/08 05:25:00;;;;;;;26.40;10.75;;;-7.90;98.00;;;;;;5048901;28;20130;-64
2023/02/08 05:27:26;;;;;;;20.95;10.65;;;-7.90;98.00;;;;;;5038872;28;20052;-64
2023/02/08 05:29:54;;;;;;;19.45;10.13;;;-7.90;98.00;;;;;;5039585;28;20461;-63
2023/02/08 05:32:20;;;;;;;19.10;10.57;;;-7.90;98.00;;;;;;5047455;28;20040;-63
2023/02/08 05:34:46;;;;;;;21.10;10.13;;;-7.90;98.00;;;;;;5042684;28;20116;-63
2023/02/08 05:37:12;;;;;;;19.67;10.73;;;-8.00;98.00;;;;;;5040441;28;20353;-63
2023/02/08 05:39:41;;;;;;;19.27;10.07;;;-8.00;98.00;;;;;;5039181;28;20029;-63
2023/02/08 05:42:07;;;;;;;18.88;9.10;;;-7.90;98.00;;;;;;5039388;28;20030;-63
2023/02/08 05:44:32;;;;;;;26.17;10.52;;;-7.90;98.00;;;;;;5037889;28;20433;-63
2023/02/08 05:46:58;;;;;;;17.00;9.43;;;-8.00;98.00;;;;;;5038604;28;20036;-63
2023/02/08 05:49:24;;;;;;;17.88;9.25;;;-8.00;98.00;;;;;;5037480;28;20029;-62
2023/02/08 05:51:49;;;;;;;20.25;10.85;;;-7.90;98.00;;;;;;5038323;28;20040;-63
2023/02/08 05:54:16;;;;;;;18.23;10.57;;;-7.80;97.80;;;;;;5047375;28;20039;-63
2023/02/08 05:56:42;;;;;;;23.13;10.10;;;-7.80;97.60;;;;;;5041955;28;20465;-62
2023/02/08 05:59:08;;;;;;;24.92;13.65;;;-7.80;97.70;;;;;;5056333;28;20083;-63
2023/02/08 06:01:34;;;;;;;24.48;11.15;;;-7.80;97.50;;;;;;5044641;28;20318;-62
2023/02/08 06:04:02;;;;;;;22.08;10.07;;;-7.80;97.50;;;;;;5041375;28;20037;-63
2023/02/08 06:06:28;;;;;;;20.27;10.05;;;-7.80;97.50;;;;;;5040521;28;20120;-63
2023/02/08 06:08:54;;;;;;;20.85;10.85;;;-7.80;97.40;;;;;;5045111;28;20116;-63
2023/02/08 06:11:19;;;;;;;21.52;11.40;;;-7.80;97.30;;;;;;5040452;28;20030;-62
2023/02/08 06:13:45;;;;;;;16.10;10.27;;;-7.80;96.80;;;;;;5041493;28;20078;-62
2023/02/08 06:16:12;;;;;;;19.27;10.60;;;-7.90;96.70;;;;;;5048380;28;20078;-63
2023/02/08 06:18:38;;;;;;;19.38;11.25;;;-8.00;97.00;;;;;;5038556;28;20486;-63
2023/02/08 06:21:04;;;;;;;22.80;13.00;;;-8.10;97.30;;;;;;4949069;28;20072;-63
2023/02/08 06:23:30;;;;;;;20.38;11.85;;;-8.10;97.50;;;;;;5036754;28;20032;-63
2023/02/08 06:25:56;;;;;;;20.02;10.07;;;-8.20;97.90;;;;;;5039532;28;20057;-63
2023/02/08 06:28:22;;;;;;;17.35;10.25;;;-8.30;98.00;;;;;;5038260;28;20132;-63
2023/02/08 06:30:49;;;;;;;18.05;9.13;;;-8.20;98.00;;;;;;5038655;28;20201;-63
2023/02/08 06:33:15;;;;;;;18.38;9.57;;;-8.10;98.00;;;;;;5050120;28;20029;-63
2023/02/08 06:35:47;;;;;;;19.90;9.30;;;-8.10;98.00;;;;;;5041756;28;20025;-63
2023/02/08 06:38:14;;;;;;;18.88;10.00;;;-8.10;98.00;;;;;;5050718;28;20087;-63
2023/02/08 06:40:39;;;;;;;17.90;9.50;;;-8.30;98.00;;;;;;5057643;28;20112;-63
2023/02/08 06:43:05;;;;;;;17.48;9.30;;;-8.40;98.00;;;;;;5050075;28;20108;-63
2023/02/08 06:45:30;;;;;;;19.05;10.32;;;-8.30;98.00;;;;;;5041663;28;20052;-63
2023/02/08 06:47:56;;;;;;;20.42;10.57;;;-8.20;98.00;;;;;;5051768;28;20044;-63
2023/02/08 06:50:21;;;;;;;22.42;10.55;;;-8.20;98.00;;;;;;5049853;28;20044;-63
2023/02/08 06:52:47;;;;;;;17.90;10.07;;;-8.20;98.00;;;;;;5054478;28;20032;-62
2023/02/08 06:55:13;;;;;;;16.92;9.40;;;-8.10;98.00;;;;;;5057108;28;20409;-63
2023/02/08 06:57:39;;;;;;;18.02;9.35;;;-8.20;98.00;;;;;;5056269;28;20029;-62
2023/02/08 07:00:05;;;;;;;19.58;9.65;;;-8.30;98.00;;;;;;5057239;28;20109;-63
2023/02/08 07:02:31;;;;;;;21.98;12.25;;;-8.30;98.00;;;;;;5056090;28;20032;-63
2023/02/08 07:04:56;;;;;;;23.38;11.45;;;-8.30;98.00;;;;;;5051629;28;20052;-63
2023/02/08 07:07:22;;;;;;;22.17;11.77;;;-8.20;98.00;;;;;;5038891;28;20056;-63
2023/02/08 07:09:48;;;;;;;21.33;10.82;;;-8.20;98.00;;;;;;5044284;28;20337;-63
2023/02/08 07:12:14;;;;;;;21.95;10.02;;;-8.30;98.00;;;;;;5055180;28;20033;-63
2023/02/08 07:14:42;;;;;;;19.33;10.30;;;-8.00;98.00;;;;;;5051154;28;20087;-63
2023/02/08 07:17:08;;;;;;;20.70;9.98;;;-8.00;98.00;;;;;;5057113;28;20025;-63
2023/02/08 07:19:34;;;;;;;20.20;11.93;;;-7.80;98.00;;;;;;5038773;28;20029;-63
2023/02/08 07:22:03;;;;;;;23.92;11.98;;;-7.50;96.20;;;;;;5042833;28;20428;-63
2023/02/08 07:24:29;;;;;;;21.65;12.93;;;-7.30;95.50;;;;;;5034991;28;20049;-63
2023/02/08 07:26:55;;;;;;;21.65;12.10;;;-7.30;96.20;;;;;;5039696;28;20039;-63
2023/02/08 07:29:20;;;;;;;22.25;11.57;;;-7.30;95.80;;;;;;5039359;28;20025;-63
2023/02/08 07:31:46;;;;;;;21.50;12.65;;;-7.20;95.70;;;;;;5044226;28;20028;-63
2023/02/08 07:34:11;;;;;;;22.75;11.90;;;-7.10;95.70;;;;;;5056638;28;20376;-62
2023/02/08 07:36:40;;;;;;;21.25;11.43;;;-7.10;95.80;;;;;;5055278;28;20433;-63
2023/02/08 07:39:05;;;;;;;22.77;10.80;;;-6.90;94.70;;;;;;5055420;28;20032;-63
2023/02/08 07:41:31;;;;;;;25.13;10.70;;;-6.80;95.10;;;;;;5056490;28;20021;-63
2023/02/08 07:43:58;;;;;;;20.90;10.20;;;-7.00;95.90;;;;;;5056376;28;20033;-63
2023/02/08 07:46:24;;;;;;;19.40;10.27;;;-7.10;96.50;;;;;;5055356;28;20042;-63
2023/02/08 07:48:49;;;;;;;20.38;10.65;;;-7.20;96.90;;;;;;5056351;28;20418;-63
2023/02/08 07:51:15;;;;;;;25.90;12.35;;;-7.20;97.20;;;;;;5056241;28;20028;-63
2023/02/08 07:53:41;;;;;;;22.88;12.20;;;-7.30;97.40;;;;;;5055183;28;20036;-63
2023/02/08 07:56:06;;;;;;;23.23;12.07;;;-7.20;97.50;;;;;;5054920;28;20040;-63
2023/02/08 07:58:32;;;;;;;44.95;23.70;;;-7.20;97.70;;;;;;5055916;28;20021;-63
2023/02/08 08:00:58;;;;;;;45.70;23.70;;;-7.00;97.40;;;;;;5056308;28;20028;-63
2023/02/08 08:03:23;;;;;;;37.53;22.05;;;-6.80;97.40;;;;;;5056122;28;20071;-63
2023/02/08 08:05:50;;;;;;;31.23;16.98;;;-6.60;97.10;;;;;;5054356;28;20036;-63
2023/02/08 08:08:16;;;;;;;36.00;18.85;;;-6.40;96.20;;;;;;5052946;28;20029;-63
2023/02/08 08:10:41;;;;;;;37.97;19.60;;;-6.30;95.60;;;;;;5056034;28;20136;-63
2023/02/08 08:13:07;;;;;;;35.85;18.02;;;-6.10;94.90;;;;;;5055009;28;20028;-63
2023/02/08 08:15:33;;;;;;;31.55;16.40;;;-5.80;94.30;;;;;;5055817;28;20021;-63
2023/02/08 08:17:58;;;;;;;33.60;17.42;;;-5.60;94.20;;;;;;5038698;28;20028;-62
2023/02/08 08:20:24;;;;;;;41.35;21.60;;;-4.90;95.20;;;;;;5035712;28;20068;-63
2023/02/08 08:22:49;;;;;;;36.40;20.63;;;-3.60;92.70;;;;;;5040451;28;20029;-63
2023/02/08 08:25:15;;;;;;;28.83;17.25;;;-2.60;88.60;;;;;;5055698;28;20429;-63
2023/02/08 08:27:40;;;;;;;29.23;16.70;;;-2.20;85.70;;;;;;5046677;28;20311;-63
2023/02/08 08:30:09;;;;;;;27.67;15.85;;;-1.90;83.50;;;;;;5035529;28;20026;-65
2023/02/08 08:32:37;;;;;;;28.60;16.45;;;-2.00;81.50;;;;;;5035843;28;20029;-65
2023/02/08 08:35:04;;;;;;;33.78;19.90;;;-2.40;82.30;;;;;;5036495;28;20330;-64
2023/02/08 08:37:30;;;;;;;25.95;14.32;;;-2.80;83.70;;;;;;5034719;28;20424;-64
2023/02/08 08:39:55;;;;;;;18.75;10.73;;;-3.00;83.70;;;;;;5037801;28;20104;-64
2023/02/08 08:42:21;;;;;;;20.77;10.38;;;-3.00;82.90;;;;;;5050460;28;20052;-63
2023/02/08 08:44:46;;;;;;;19.05;10.25;;;-2.70;80.70;;;;;;5054356;28;20071;-63
2023/02/08 08:47:12;;;;;;;19.27;10.43;;;-2.40;80.10;;;;;;5039625;28;20037;-63
2023/02/08 08:49:38;;;;;;;16.20;9.27;;;-1.90;78.80;;;;;;5025714;28;20032;-64
2023/02/08 08:52:06;;;;;;;16.67;9.88;;;-1.00;77.40;;;;;;5021806;28;20025;-63
2023/02/08 08:54:32;;;;;;;17.40;9.70;;;0.10;75.10;;;;;;5030969;28;20022;-64
2023/02/08 08:56:58;;;;;;;14.90;8.73;;;1.00;72.00;;;;;;5045378;28;20075;-64
2023/02/08 08:59:23;;;;;;;16.95;9.32;;;1.30;70.40;;;;;;5039749;28;20029;-64
2023/02/08 09:01:49;;;;;;;14.68;8.30;;;1.90;68.20;;;;;;5048307;28;20029;-64
2023/02/08 09:04:15;;;;;;;15.63;8.95;;;2.20;67.20;;;;;;5034541;28;20060;-64
2023/02/08 09:06:41;;;;;;;16.83;9.32;;;2.50;66.20;;;;;;5034858;28;20453;-64
2023/02/08 09:09:06;;;;;;;14.93;8.85;;;2.70;66.30;;;;;;5033017;28;20048;-63
2023/02/08 09:11:32;;;;;;;14.07;8.48;;;2.70;65.80;;;;;;5054749;28;20104;-64
2023/02/08 09:14:00;;;;;;;15.25;8.45;;;2.60;65.40;;;;;;5039723;28;20033;-64
2023/02/08 09:16:26;;;;;;;17.50;8.80;;;2.90;65.10;;;;;;5051623;28;20028;-63
2023/02/08 09:18:51;;;;;;;14.38;8.65;;;2.70;64.90;;;;;;5041948;28;20034;-64
2023/02/08 09:21:21;;;;;;;16.23;9.30;;;2.80;65.30;;;;;;5038677;28;20076;-64
2023/02/08 09:23:47;;;;;;;15.13;8.77;;;3.30;64.90;;;;;;5037093;28;20026;-64
2023/02/08 09:26:14;;;;;;;21.75;10.90;;;3.00;64.90;;;;;;5039010;28;20048;-64
2023/02/08 09:28:40;;;;;;;20.73;8.85;;;3.30;64.30;;;;;;5038853;28;20030;-64
2023/02/08 09:31:18;;;;;;;17.70;9.05;;;3.60;63.70;;;;;;5038578;28;20029;-64
2023/02/08 09:33:43;;;;;;;19.65;10.30;;;3.60;63.90;;;;;;5043811;28;20026;-64
2023/02/08 09:36:09;;;;;;;16.27;9.75;;;4.40;64.10;;;;;;5043185;28;21749;-64
2023/02/08 09:38:35;;;;;;;14.40;8.18;;;4.60;62.20;;;;;;5033275;28;20485;-64
2023/02/08 09:41:16;;;;;;;15.45;9.40;;;4.30;62.20;;;;;;5044400;28;20036;-64
2023/02/08 09:43:48;;;;;;;13.43;7.97;;;4.40;62.40;;;;;;5046734;28;20030;-64
2023/02/08 09:46:19;;;;;;;14.07;8.77;;;4.50;61.60;;;;;;5035793;28;20121;-64
2023/02/08 09:48:48;;;;;;;15.43;8.00;;;4.30;62.40;;;;;;5035824;28;20021;-64
2023/02/08 09:51:28;;;;;;;16.50;9.05;;;4.30;62.30;;;;;;5043119;28;20437;-64
2023/02/08 09:54:16;;;;;;;19.90;11.02;;;4.50;62.10;;;;;;5036625;28;20037;-64
2023/02/08 09:56:44;;;;;;;21.23;12.43;;;4.60;61.50;;;;;;5044434;28;20096;-64
2023/02/08 09:59:28;;;;;;;15.38;9.35;;;4.30;62.70;;;;;;5049007;28;20033;-63
2023/02/08 10:02:20;;;;;;;18.08;10.60;;;4.00;62.40;;;;;;5046980;28;20029;-64
2023/02/08 10:05:08;;;;;;;16.45;9.75;;;3.90;63.60;;;;;;5037092;28;20041;-64
2023/02/08 10:07:35;;;;;;;19.60;10.82;;;3.70;63.80;;;;;;5056995;28;20028;-64
2023/02/08 10:10:04;;;;;;;22.20;11.00;;;3.70;64.00;;;;;;5048256;28;20163;-64
2023/02/08 10:13:07;;;;;;;17.02;9.88;;;4.00;63.90;;;;;;5047766;28;20334;-64
2023/02/08 10:15:42;;;;;;;17.70;9.55;;;4.30;63.90;;;;;;5037754;28;20032;-64
2023/02/08 10:18:18;;;;;;;15.80;9.38;;;4.50;62.80;;;;;;5055215;28;20033;-63
2023/02/08 10:21:32;;;;;;;17.13;9.07;;;4.40;63.00;;;;;;5044242;28;20021;-64
2023/02/08 10:24:29;;;;;;;16.55;9.40;;;4.20;62.80;;;;;;5035587;28;20119;-64
2023/02/08 10:27:12;;;;;;;19.85;10.07;;;4.60;63.80;;;;;;5036841;28;20452;-64
2023/02/08 10:29:44;;;;;;;17.50;10.05;;;4.70;62.30;;;;;;5038335;28;20380;-64
2023/02/08 10:32:12;;;;;;;14.38;9.32;;;4.80;62.90;;;;;;5056076;28;20043;-64
2023/02/08 10:34:56;;;;;;;16.92;9.65;;;4.90;62.70;;;;;;5039869;28;20484;-64
2023/02/08 10:37:33;;;;;;;16.35;8.88;;;4.60;62.30;;;;;;5040435;28;20414;-64
2023/02/08 10:40:23;;;;;;;15.65;9.93;;;4.80;63.50;;;;;;5042680;28;20020;-64
2023/02/08 10:42:57;;;;;;;16.92;8.75;;;4.80;63.00;;;;;;5056348;28;20037;-64
2023/02/08 10:45:31;;;;;;;18.65;9.00;;;4.70;62.60;;;;;;5047012;28;20033;-64
2023/02/08 10:48:02;;;;;;;;;;;4.30;62.20;;;;;;5040049;28;20426;-64
2023/02/08 10:50:39;;;;;;;59.00;25.70;;;4.10;63.60;;;;;;5036128;28;20205;-64
2023/02/08 10:53:14;;;;;;;78.68;39.47;;;4.30;63.50;;;;;;5037957;28;20018;-64
2023/02/08 10:55:42;;;;;;;70.97;34.95;;;4.60;63.50;;;;;;5039326;28;20057;-64
2023/02/08 10:58:14;;;;;;;33.60;17.70;;;4.60;63.80;;;;;;5049244;28;20027;-64
2023/02/08 11:00:41;;;;;;;227.52;104.30;;;5.30;64.30;;;;;;5037184;28;20095;-64
2023/02/08 11:03:24;;;;;;;90.50;45.13;;;5.40;62.60;;;;;;5037257;28;20041;-64
2023/02/08 11:05:50;;;;;;;32.40;18.27;;;5.70;63.50;;;;;;5054583;28;20036;-64
2023/02/08 11:08:18;;;;;;;22.55;14.80;;;6.00;62.80;;;;;;5047411;28;20029;-64
2023/02/08 11:11:03;;;;;;;22.85;14.13;;;6.20;62.10;;;;;;5053766;28;20114;-64
2023/02/08 11:13:42;;;;;;;17.48;11.20;;;6.00;61.60;;;;;;5046188;28;20030;-64
2023/02/08 11:16:40;;;;;;;17.40;10.50;;;6.00;61.90;;;;;;5056216;28;20154;-63
2023/02/08 11:19:14;;;;;;;18.25;10.55;;;6.20;63.10;;;;;;5033513;28;20041;-63
2023/02/08 11:21:41;;;;;;;16.10;9.10;;;6.20;61.50;;;;;;5039969;28;20291;-63
2023/02/08 11:24:38;;;;;;;15.23;9.85;;;6.30;62.50;;;;;;5049662;28;20029;-65
2023/02/08 11:27:17;;;;;;;14.68;8.00;;;6.20;62.70;;;;;;5035717;28;20436;-65
2023/02/08 11:29:43;;;;;;;16.58;9.23;;;6.60;62.30;;;;;;5033833;28;20036;-64
2023/02/08 11:32:19;;;;;;;14.38;8.60;;;6.60;62.40;;;;;;5035587;28;20021;-65
2023/02/08 11:34:45;;;;;;;16.75;10.55;;;7.00;61.60;;;;;;5040877;28;20422;-64
2023/02/08 11:37:19;;;;;;;17.35;11.63;;;6.60;60.40;;;;;;5051247;28;20047;-64
2023/02/08 11:39:50;;;;;;;17.42;10.73;;;6.50;61.90;;;;;;5038868;28;20037;-64
2023/02/08 11:42:36;;;;;;;15.27;9.38;;;7.00;62.40;;;;;;5036053;28;20018;-64
2023/02/08 11:45:03;;;;;;;23.02;15.30;;;7.30;61.10;;;;;;5036701;28;20029;-64
2023/02/08 11:47:32;;;;;;;18.08;10.32;;;7.40;60.60;;;;;;5038130;28;20025;-64
2023/02/08 11:50:02;;;;;;;19.13;9.60;;;7.10;61.00;;;;;;5035872;28;20454;-64
2023/02/08 11:52:35;;;;;;;14.07;8.77;;;7.00;62.00;;;;;;5034772;28;20083;-64
2023/02/08 11:55:15;;;;;;;18.63;8.38;;;7.00;62.60;;;;;;5037755;28;20041;-64
2023/02/08 11:58:00;;;;;;;15.20;9.18;;;7.40;62.10;;;;;;5046213;28;20364;-64
2023/02/08 12:01:15;;;;;;;14.18;8.65;;;7.70;61.40;;;;;;5040563;28;20029;-64
2023/02/08 12:03:42;;;;;;;15.82;8.68;;;8.00;59.60;;;;;;5044465;28;20029;-64
2023/02/08 12:06:39;;;;;;;15.93;8.63;;;7.70;61.50;;;;;;5035585;28;20033;-64
2023/02/08 12:09:22;;;;;;;14.52;8.15;;;7.20;60.50;;;;;;5040168;28;20029;-64
2023/02/08 12:11:55;;;;;;;12.90;7.18;;;7.20;62.10;;;;;;5035595;28;20030;-64
2023/02/08 12:14:35;;;;;;;13.68;7.53;;;7.50;61.40;;;;;;5035598;28;20032;-64
2023/02/08 12:17:06;;;;;;;10.88;7.05;;;7.70;60.50;;;;;;5037593;28;20044;-64
2023/02/08 12:20:09;;;;;;;14.32;7.20;;;7.50;59.20;;;;;;5054793;28;20410;-64
2023/02/08 12:22:42;;;;;;;12.45;7.65;;;7.20;59.20;;;;;;5041105;28;20334;-64
2023/02/08 12:25:44;;;;;;;14.30;8.65;;;6.90;61.00;;;;;;5035795;28;20052;-64
2023/02/08 12:28:31;;;;;;;15.48;8.52;;;6.50;60.80;;;;;;5030096;28;20029;-64
2023/02/08 12:31:34;;;;;;;15.20;8.18;;;6.20;62.00;;;;;;5030400;28;20037;-64
2023/02/08 12:34:05;;;;;;;17.30;9.60;;;6.30;61.60;;;;;;5035340;28;20025;-64
2023/02/08 12:36:44;;;;;;;14.70;8.43;;;6.30;61.50;;;;;;5036514;28;20032;-64
2023/02/08 12:42:09;;;;;;;13.73;9.05;;;6.30;62.90;;;;;;5045136;28;20083;-64
2023/02/08 12:44:53;;;;;;;16.55;9.02;;;6.40;61.60;;;;;;5037955;28;20026;-64
2023/02/08 12:47:33;;;;;;;;;;;6.20;62.90;;;;;;5046547;28;20033;-64
2023/02/08 12:50:18;;;;;;;17.77;8.40;;;6.30;63.00;;;;;;5058034;28;20348;-64
2023/02/08 12:52:56;;;;;;;15.63;8.93;;;6.20;63.00;;;;;;5037980;28;20318;-64
2023/02/08 12:55:40;;;;;;;13.50;8.45;;;6.00;63.50;;;;;;5039128;28;20330;-64
2023/02/08 12:58:26;;;;;;;16.38;10.65;;;6.20;63.70;;;;;;5047839;28;20409;-64